createdAt,value
2018-05-26T00:00:35.142Z,50.23
2018-05-26T00:03:09.356Z,47.83
2018-05-26T00:05:42.394Z,50.40
2018-05-26T00:08:24.458Z,50.83
2018-05-26T00:10:52.012Z,48.70
2018-05-26T00:13:20.698Z,47.60
2018-05-26T00:15:48.289Z,47.80
2018-05-26T00:18:17.760Z,50.70
2018-05-26T00:20:46.430Z,51.70
2018-05-26T00:23:20.669Z,50.17
2018-05-26T00:26:06.214Z,50.33
2018-05-26T00:28:34.938Z,49.93
2018-05-26T00:31:07.964Z,55.33
2018-05-26T00:33:38.756Z,50.57
2018-05-26T00:36:17.273Z,50.20
2018-05-26T00:39:02.790Z,51.40
2018-05-26T00:41:30.334Z,52.70
2018-05-26T00:43:59.011Z,55.97
2018-05-26T00:46:31.428Z,54.87
2018-05-26T00:49:15.680Z,57.47
2018-05-26T00:51:54.547Z,56.87
2018-05-26T00:54:33.048Z,52.40
2018-05-26T00:57:07.890Z,52.17
2018-05-26T00:59:36.609Z,47.93
2018-05-26T01:02:08.722Z,53.23
2018-05-26T01:04:36.430Z,49.20
2018-05-26T01:07:06.972Z,53.70
2018-05-26T01:09:35.660Z,49.70
2018-05-26T01:12:04.026Z,49.27
2018-05-26T01:14:41.898Z,45.67
2018-05-26T01:17:13.994Z,48.30
2018-05-26T01:19:44.841Z,46.30
2018-05-26T01:22:13.616Z,47.80
2018-05-26T01:24:42.208Z,45.60
2018-05-26T01:27:14.294Z,47.13
2018-05-26T01:29:56.157Z,49.83
2018-05-26T01:32:25.786Z,50.23
2018-05-26T01:34:55.078Z,48.33
2018-05-26T01:37:27.523Z,49.63
2018-05-26T01:39:56.184Z,55.03
2018-05-26T01:42:38.905Z,51.53
2018-05-26T01:45:28.006Z,49.90
2018-05-26T01:47:56.616Z,51.30
2018-05-26T01:50:24.129Z,48.70
2018-05-26T01:52:52.745Z,48.67
2018-05-26T01:55:20.272Z,47.63
2018-05-26T01:57:47.979Z,46.67
2018-05-26T02:00:40.358Z,52.03
2018-05-26T02:03:09.015Z,49.57
2018-05-26T02:05:36.559Z,51.80
2018-05-26T02:08:06.040Z,49.30
2018-05-26T02:10:34.791Z,51.87
2018-05-26T02:13:03.135Z,46.97
2018-05-26T02:15:36.145Z,46.03
2018-05-26T02:18:07.265Z,44.80
2018-05-26T02:20:34.764Z,46.80
2018-05-26T02:23:10.466Z,42.67
2018-05-26T02:25:40.081Z,49.37
2018-05-26T02:28:12.457Z,53.97
2018-05-26T02:30:46.634Z,50.33
2018-05-26T02:33:15.073Z,55.50
2018-05-26T02:35:42.618Z,51.80
2018-05-26T02:38:21.014Z,53.83
2018-05-26T02:40:56.776Z,53.90
2018-05-26T02:43:25.499Z,49.70
2018-05-26T02:45:55.080Z,50.60
2018-05-26T02:48:22.588Z,47.77
2018-05-26T02:51:08.692Z,49.73
2018-05-26T02:53:46.637Z,47.60
2018-05-26T02:56:16.270Z,53.87
2018-05-26T02:58:56.004Z,47.93
2018-05-26T03:01:38.450Z,51.20
2018-05-26T03:04:05.495Z,56.60
2018-05-26T03:06:40.682Z,55.40
2018-05-26T03:09:14.952Z,55.83
2018-05-26T03:11:49.111Z,50.77
2018-05-26T03:14:25.538Z,50.07
2018-05-26T03:16:56.160Z,46.10
2018-05-26T03:19:27.316Z,50.77
2018-05-26T03:21:55.092Z,49.67
2018-05-26T03:24:29.177Z,52.00
2018-05-26T03:26:59.502Z,49.60
2018-05-26T03:29:31.538Z,54.40
2018-05-26T03:32:04.547Z,58.80
2018-05-26T03:34:32.069Z,53.80
2018-05-26T03:37:01.610Z,57.77
2018-05-26T03:39:30.349Z,55.70
2018-05-26T03:42:11.511Z,56.00
2018-05-26T03:44:39.039Z,59.33
2018-05-26T03:47:08.643Z,56.70
2018-05-26T03:49:39.189Z,56.70
2018-05-26T03:52:07.641Z,53.90
2018-05-26T03:54:48.926Z,57.07
2018-05-26T03:57:29.297Z,61.47
2018-05-26T04:00:17.851Z,58.93
2018-05-26T04:02:46.568Z,58.97
2018-05-26T04:05:15.224Z,57.93
2018-05-26T04:07:43.917Z,60.60
2018-05-26T04:10:12.622Z,56.60
2018-05-26T04:12:41.299Z,57.03
2018-05-26T04:15:16.415Z,57.97
2018-05-26T04:17:48.523Z,53.70
2018-05-26T04:20:21.175Z,57.00
2018-05-26T04:22:49.895Z,58.47
2018-05-26T04:25:18.576Z,54.77
2018-05-26T04:27:46.075Z,56.57
2018-05-26T04:30:15.746Z,55.03
2018-05-26T04:32:49.239Z,53.60
2018-05-26T04:35:31.720Z,52.53
2018-05-26T04:38:07.787Z,54.13
2018-05-26T04:40:35.316Z,56.30
2018-05-26T04:43:07.631Z,51.77
2018-05-26T04:45:38.804Z,54.27
2018-05-26T04:51:01.050Z,54.80
2018-05-26T04:53:34.942Z,58.77
2018-05-26T04:56:13.447Z,61.57
2018-05-26T04:58:44.595Z,57.37
2018-05-26T05:01:23.093Z,56.73
2018-05-26T05:04:08.599Z,57.93
2018-05-26T05:06:38.323Z,56.57
2018-05-26T05:09:21.068Z,55.10
2018-05-26T05:12:06.674Z,55.00
2018-05-26T05:14:41.543Z,53.77
2018-05-26T05:17:09.082Z,51.47
2018-05-26T05:19:36.863Z,54.67
2018-05-26T05:22:04.529Z,48.93
2018-05-26T05:24:32.027Z,52.00
2018-05-26T05:27:02.879Z,50.63
2018-05-26T05:29:31.531Z,52.93
2018-05-26T05:32:07.901Z,50.50
2018-05-26T05:34:46.367Z,50.93
2018-05-26T05:37:17.581Z,47.57
2018-05-26T05:39:48.391Z,49.80
2018-05-26T05:42:23.898Z,51.53
2018-05-26T05:44:52.531Z,46.17
2018-05-26T05:47:20.047Z,46.77
2018-05-26T05:50:05.809Z,49.20
2018-05-26T05:52:41.920Z,43.83
2018-05-26T05:55:14.017Z,47.70
2018-05-26T05:57:53.740Z,46.07
2018-05-26T06:00:27.640Z,42.17
2018-05-26T06:02:57.286Z,45.63
2018-05-26T06:05:42.471Z,43.23
2018-05-26T06:08:12.168Z,49.07
2018-05-26T06:10:43.598Z,45.70
2018-05-26T06:13:13.222Z,41.83
2018-05-26T06:15:41.900Z,40.60
2018-05-26T06:18:24.360Z,44.00
2018-05-26T06:20:52.804Z,44.30
2018-05-26T06:23:33.196Z,45.67
2018-05-26T06:26:11.634Z,42.10
2018-05-26T06:28:42.842Z,39.80
2018-05-26T06:31:14.596Z,41.57
2018-05-26T06:33:42.335Z,44.23
2018-05-26T06:36:11.965Z,39.87
2018-05-26T06:38:40.323Z,41.40
2018-05-26T06:41:09.949Z,38.67
2018-05-26T06:43:38.331Z,44.00
2018-05-26T06:46:05.857Z,40.47
2018-05-26T06:48:33.562Z,40.13
2018-05-26T06:51:01.921Z,36.93
2018-05-26T06:53:40.130Z,37.63
2018-05-26T06:56:14.065Z,36.23
2018-05-26T06:58:51.638Z,35.80
2018-05-26T07:01:23.720Z,36.53
2018-05-26T07:03:59.141Z,35.37
2018-05-26T07:06:31.212Z,37.23
2018-05-26T07:09:04.222Z,38.13
2018-05-26T07:11:31.741Z,35.77
2018-05-26T07:14:01.273Z,32.77
2018-05-26T07:16:32.738Z,32.77
2018-05-26T07:19:01.403Z,34.33
2018-05-26T07:21:28.916Z,33.37
2018-05-26T07:23:56.651Z,37.43
2018-05-26T07:26:28.391Z,35.63
2018-05-26T07:28:58.037Z,29.93
2018-05-26T07:31:26.683Z,34.37
2018-05-26T07:34:05.212Z,28.47
2018-05-26T07:36:34.501Z,33.13
2018-05-26T07:39:02.008Z,32.23
2018-05-26T07:41:35.575Z,28.03
2018-05-26T07:44:04.244Z,29.43
2018-05-26T07:46:40.605Z,29.40
2018-05-26T07:49:15.197Z,30.10
2018-05-26T07:51:43.859Z,30.67
2018-05-26T07:54:29.367Z,31.23
2018-05-26T07:56:59.123Z,27.07
2018-05-26T07:59:31.079Z,25.53
2018-05-26T08:02:02.877Z,29.57
2018-05-26T08:04:32.523Z,27.47
2018-05-26T08:07:01.144Z,26.93
2018-05-26T08:09:41.187Z,25.97
2018-05-26T08:12:19.995Z,27.63
2018-05-26T08:14:58.849Z,27.47
2018-05-26T08:17:30.932Z,25.23
2018-05-26T08:20:15.232Z,28.40
2018-05-26T08:22:54.079Z,25.73
2018-05-26T08:25:22.799Z,25.77
2018-05-26T08:27:50.322Z,29.03
2018-05-26T08:30:25.065Z,22.67
2018-05-26T08:33:00.536Z,22.73
2018-05-26T08:35:32.929Z,27.40
2018-05-26T08:38:04.676Z,21.30
2018-05-26T08:40:36.169Z,22.77
2018-05-26T08:46:14.894Z,21.07
2018-05-26T08:48:53.767Z,20.73
2018-05-26T08:51:36.318Z,19.20
2018-05-26T08:54:04.670Z,19.80
2018-05-26T08:56:40.712Z,19.23
2018-05-26T08:59:12.509Z,16.77
2018-05-26T09:01:40.896Z,17.23
2018-05-26T09:04:11.157Z,14.60
2018-05-26T09:06:40.725Z,19.97
2018-05-26T09:09:11.558Z,15.53
2018-05-26T09:11:39.098Z,16.03
2018-05-26T09:14:06.771Z,13.37
2018-05-26T09:16:46.226Z,12.77
2018-05-26T09:19:31.724Z,11.63
2018-05-26T09:22:01.422Z,9.77
2018-05-26T09:24:30.078Z,14.60
2018-05-26T09:26:57.586Z,10.80
2018-05-26T09:29:25.329Z,11.23
2018-05-26T09:31:54.056Z,12.87
2018-05-26T09:34:21.757Z,15.77
2018-05-26T09:36:51.386Z,9.80
2018-05-26T09:39:20.052Z,11.07
2018-05-26T09:42:00.105Z,11.53
2018-05-26T09:44:45.628Z,10.17
2018-05-26T09:47:15.298Z,9.47
2018-05-26T09:49:47.359Z,10.63
2018-05-26T09:52:19.159Z,10.83
2018-05-26T09:55:03.137Z,11.17
2018-05-26T09:57:36.188Z,11.87
2018-05-26T10:00:28.862Z,11.07
2018-05-26T10:02:58.449Z,10.97
2018-05-26T10:05:38.129Z,10.33
2018-05-26T10:08:05.654Z,12.27
2018-05-26T10:10:34.317Z,9.57
2018-05-26T10:13:05.791Z,11.27
2018-05-26T10:15:38.446Z,12.13
2018-05-26T10:21:15.082Z,10.20
2018-05-26T10:23:42.625Z,8.80
2018-05-26T10:26:14.740Z,10.37
2018-05-26T10:28:44.317Z,12.87
2018-05-26T10:31:21.867Z,11.20
2018-05-26T10:33:50.594Z,11.37
2018-05-26T10:36:29.370Z,9.73
2018-05-26T10:39:15.844Z,9.27
2018-05-26T10:42:02.756Z,12.10
2018-05-26T10:44:34.799Z,11.07
2018-05-26T10:47:06.541Z,10.73
2018-05-26T10:49:41.432Z,13.43
2018-05-26T10:52:19.241Z,10.50
2018-05-26T10:54:56.837Z,9.90
2018-05-26T10:57:25.560Z,11.13
2018-05-26T10:59:56.101Z,11.33
2018-05-26T11:02:33.103Z,9.17
2018-05-26T11:05:07.540Z,12.00
2018-05-26T11:10:28.016Z,9.67
2018-05-26T11:13:01.291Z,8.70
2018-05-26T11:15:28.794Z,9.43
2018-05-26T11:17:57.617Z,11.40
2018-05-26T11:20:24.987Z,8.07
2018-05-26T11:22:52.686Z,8.50
2018-05-26T11:25:21.401Z,11.00
2018-05-26T11:27:49.145Z,9.43
2018-05-26T11:30:22.746Z,11.40
2018-05-26T11:32:59.085Z,10.10
2018-05-26T11:35:27.800Z,12.03
2018-05-26T11:37:58.009Z,10.90
2018-05-26T11:40:38.052Z,9.67
2018-05-26T11:43:05.889Z,13.03
2018-05-26T11:45:33.704Z,10.63
2018-05-26T11:48:03.211Z,10.03
2018-05-26T11:50:34.047Z,9.40
2018-05-26T11:53:02.738Z,11.87
2018-05-26T11:55:41.231Z,10.43
2018-05-26T11:58:10.871Z,10.10
2018-05-26T12:00:51.186Z,10.27
2018-05-26T12:03:20.878Z,9.80
2018-05-26T12:05:53.820Z,10.37
2018-05-26T12:08:36.867Z,9.97
2018-05-26T12:11:05.362Z,12.40
2018-05-26T12:13:33.077Z,10.00
2018-05-26T12:16:22.397Z,8.33
2018-05-26T12:18:51.963Z,13.47
2018-05-26T12:21:24.854Z,8.47
2018-05-26T12:23:54.261Z,9.03
2018-05-26T12:26:40.384Z,11.47
2018-05-26T12:29:13.731Z,8.00
2018-05-26T12:31:41.253Z,9.37
2018-05-26T12:34:08.947Z,9.63
2018-05-26T12:36:37.647Z,10.90
2018-05-26T12:39:06.088Z,8.37
2018-05-26T12:41:50.659Z,9.47
2018-05-26T12:44:23.689Z,9.23
2018-05-26T12:46:53.286Z,8.53
2018-05-26T12:49:39.738Z,8.57
2018-05-26T12:52:08.203Z,7.23
2018-05-26T12:54:42.671Z,7.57
2018-05-26T12:57:17.245Z,7.40
2018-05-26T12:59:44.772Z,7.00
2018-05-26T13:02:20.753Z,7.30
2018-05-26T13:04:59.247Z,9.27
2018-05-26T13:07:34.655Z,6.90
2018-05-26T13:10:07.715Z,10.17
2018-05-26T13:12:51.674Z,7.90
2018-05-26T13:15:24.128Z,8.97
2018-05-26T13:18:02.305Z,7.83
2018-05-26T13:20:40.812Z,7.43
2018-05-26T13:23:09.564Z,7.63
2018-05-26T13:25:37.369Z,8.03
2018-05-26T13:28:06.931Z,6.70
2018-05-26T13:30:47.251Z,6.70
2018-05-26T13:33:14.789Z,6.30
2018-05-26T13:35:43.501Z,6.73
2018-05-26T13:38:11.181Z,7.03
2018-05-26T13:40:40.813Z,8.10
2018-05-26T13:43:09.163Z,8.80
2018-05-26T13:45:47.364Z,6.93
2018-05-26T13:48:14.875Z,6.93
2018-05-26T13:50:44.489Z,7.40
2018-05-26T13:53:18.972Z,7.03
2018-05-26T13:55:51.092Z,7.00
2018-05-26T13:58:19.741Z,5.93
2018-05-26T14:00:51.497Z,6.00
2018-05-26T14:03:20.225Z,6.77
2018-05-26T14:05:49.789Z,7.30
2018-05-26T14:08:27.364Z,6.90
2018-05-26T14:10:56.989Z,7.30
2018-05-26T14:13:29.063Z,9.53
2018-05-26T14:15:58.656Z,8.30
2018-05-26T14:18:28.283Z,8.17
2018-05-26T14:21:02.168Z,7.37
2018-05-26T14:23:37.635Z,7.43
2018-05-26T14:26:16.131Z,7.27
2018-05-26T14:28:47.289Z,8.93
2018-05-26T14:31:33.455Z,6.60
2018-05-26T14:34:20.244Z,7.93
2018-05-26T14:36:53.316Z,6.67
2018-05-26T14:39:20.819Z,6.80
2018-05-26T14:41:48.957Z,7.60
2018-05-26T14:44:19.707Z,7.60
2018-05-26T14:46:47.424Z,6.93
2018-05-26T14:49:14.929Z,7.30
2018-05-26T14:52:03.269Z,7.50
2018-05-26T14:54:34.053Z,7.10
2018-05-26T14:57:01.565Z,6.53
2018-05-26T14:59:29.284Z,6.57
2018-05-26T15:01:58.856Z,7.73
2018-05-26T15:04:32.203Z,7.70
2018-05-26T15:07:14.346Z,7.13
2018-05-26T15:09:43.999Z,7.10
2018-05-26T15:12:20.100Z,8.27
2018-05-26T15:15:05.569Z,7.27
2018-05-26T15:17:46.600Z,7.00
2018-05-26T15:20:21.112Z,8.03
2018-05-26T15:22:51.994Z,6.80
2018-05-26T15:25:19.486Z,8.13
2018-05-26T15:27:49.062Z,7.03
2018-05-26T15:30:22.366Z,7.37
2018-05-26T15:32:50.735Z,7.63
2018-05-26T15:35:18.286Z,7.43
2018-05-26T15:37:49.326Z,8.13
2018-05-26T15:40:28.801Z,6.73
2018-05-26T15:43:06.352Z,7.07
2018-05-26T15:45:35.063Z,8.00
2018-05-26T15:48:02.583Z,6.90
2018-05-26T15:50:31.157Z,6.87
2018-05-26T15:52:59.132Z,6.70
2018-05-26T15:55:26.756Z,9.53
2018-05-26T15:57:54.495Z,7.17
2018-05-26T16:00:26.574Z,7.80
2018-05-26T16:03:08.705Z,7.40
2018-05-26T16:05:36.317Z,6.87
2018-05-26T16:08:12.240Z,6.50
2018-05-26T16:10:40.681Z,7.73
2018-05-26T16:13:13.957Z,7.77
2018-05-26T16:15:42.655Z,6.93
2018-05-26T16:18:21.445Z,6.20
2018-05-26T16:20:53.248Z,6.93
2018-05-26T16:23:33.870Z,6.13
2018-05-26T16:26:07.798Z,7.00
2018-05-26T16:28:49.134Z,6.60
2018-05-26T16:31:17.806Z,6.40
2018-05-26T16:33:46.462Z,6.83
2018-05-26T16:36:32.018Z,7.70
2018-05-26T16:39:01.662Z,7.17
2018-05-26T16:41:39.862Z,6.97
2018-05-26T16:44:18.474Z,6.90
2018-05-26T16:49:40.949Z,6.77
2018-05-26T16:52:21.854Z,8.77
2018-05-26T16:55:09.348Z,7.47
2018-05-26T16:57:56.092Z,6.97
2018-05-26T17:00:27.588Z,7.43
2018-05-26T17:02:58.775Z,5.77
2018-05-26T17:05:38.229Z,6.00
2018-05-26T17:08:10.593Z,6.33
2018-05-26T17:10:41.130Z,6.30
2018-05-26T17:13:08.640Z,7.33
2018-05-26T17:15:40.619Z,6.67
2018-05-26T17:18:15.439Z,6.50
2018-05-26T17:20:48.159Z,7.97
2018-05-26T17:23:15.699Z,6.30
2018-05-26T17:25:43.379Z,6.90
2018-05-26T17:28:21.248Z,7.93
2018-05-26T17:30:52.461Z,6.60
2018-05-26T17:33:28.787Z,5.90
2018-05-26T17:36:00.951Z,6.73
2018-05-26T17:38:41.302Z,7.30
2018-05-26T17:41:23.359Z,6.47
2018-05-26T17:43:58.250Z,6.27
2018-05-26T17:46:37.049Z,7.00
2018-05-26T17:49:07.928Z,6.67
2018-05-26T17:51:40.720Z,6.50
2018-05-26T17:54:10.213Z,7.03
2018-05-26T17:56:39.920Z,9.40
2018-05-26T17:59:13.087Z,7.00
2018-05-26T18:01:48.870Z,8.07
2018-05-26T18:04:20.952Z,11.23
2018-05-26T18:06:52.743Z,10.53
2018-05-26T18:09:26.788Z,10.80
2018-05-26T18:11:54.391Z,7.50
2018-05-26T18:14:22.753Z,8.90
2018-05-26T18:16:54.312Z,8.20
2018-05-26T18:19:23.805Z,9.07
2018-05-26T18:22:08.877Z,7.47
2018-05-26T18:24:39.937Z,6.87
2018-05-26T18:27:07.490Z,7.87
2018-05-26T18:29:48.310Z,7.00
2018-05-26T18:32:28.107Z,10.13
2018-05-26T18:35:02.962Z,13.03
2018-05-26T18:37:34.693Z,7.60
2018-05-26T18:40:05.579Z,7.23
2018-05-26T18:45:30.551Z,10.40
2018-05-26T18:47:58.078Z,7.50
2018-05-26T18:50:27.689Z,7.77
2018-05-26T18:52:58.169Z,9.77
2018-05-26T18:55:25.667Z,9.10
2018-05-26T18:57:54.299Z,8.10
2018-05-26T19:00:40.142Z,7.80
2018-05-26T19:03:09.796Z,8.50
2018-05-26T19:05:44.926Z,10.07
2018-05-26T19:08:14.563Z,13.70
2018-05-26T19:10:51.199Z,9.40
2018-05-26T19:13:26.945Z,9.87
2018-05-26T19:16:01.464Z,9.53
2018-05-26T19:18:31.118Z,8.17
2018-05-26T19:21:02.564Z,9.07
2018-05-26T19:23:30.085Z,8.23
2018-05-26T19:25:58.716Z,8.43
2018-05-26T19:28:27.988Z,8.23
2018-05-26T19:31:00.080Z,9.63
2018-05-26T19:33:51.218Z,10.00
2018-05-26T19:36:30.936Z,10.07
2018-05-26T19:39:10.942Z,9.60
2018-05-26T19:41:40.634Z,10.30
2018-05-26T19:44:12.658Z,11.57
2018-05-26T19:46:56.962Z,12.17
2018-05-26T19:49:35.797Z,10.87
2018-05-26T19:52:07.989Z,10.07
2018-05-26T19:54:40.300Z,10.17
2018-05-26T19:57:15.718Z,12.43
2018-05-26T19:59:47.809Z,10.43
2018-05-26T20:02:29.267Z,11.43
2018-05-26T20:04:58.990Z,14.83
2018-05-26T20:07:27.690Z,12.73
2018-05-26T20:09:58.541Z,11.80
2018-05-26T20:12:33.006Z,12.47
2018-05-26T20:15:22.064Z,11.60
2018-05-26T20:17:50.765Z,12.03
2018-05-26T20:23:13.565Z,12.20
2018-05-26T20:25:42.921Z,15.73
2018-05-26T20:28:13.118Z,13.00
2018-05-26T20:30:44.079Z,13.20
2018-05-26T20:33:11.903Z,14.30
2018-05-26T20:35:40.409Z,14.27
2018-05-26T20:38:11.907Z,11.53
2018-05-26T20:40:46.032Z,13.63
2018-05-26T20:43:24.971Z,13.27
2018-05-26T20:46:05.211Z,13.87
2018-05-26T20:48:38.011Z,12.47
2018-05-26T20:51:06.704Z,12.97
2018-05-26T20:53:34.367Z,12.53
2018-05-26T20:56:01.887Z,12.37
2018-05-26T20:58:32.988Z,12.73
2018-05-26T21:01:03.873Z,13.93
2018-05-26T21:03:36.875Z,16.17
2018-05-26T21:06:08.594Z,12.03
2018-05-26T21:08:39.431Z,12.50
2018-05-26T21:11:14.834Z,11.90
2018-05-26T21:13:42.359Z,14.17
2018-05-26T21:16:17.425Z,13.37
2018-05-26T21:18:48.304Z,12.50
2018-05-26T21:21:15.910Z,14.40
2018-05-26T21:23:45.420Z,13.00
2018-05-26T21:26:13.139Z,12.83
2018-05-26T21:28:42.741Z,15.67
2018-05-26T21:31:14.264Z,12.33
2018-05-26T21:33:42.875Z,13.53
2018-05-26T21:36:14.000Z,13.97
2018-05-26T21:38:42.751Z,11.73
2018-05-26T21:41:12.339Z,12.00
2018-05-26T21:43:41.020Z,13.97
2018-05-26T21:46:09.934Z,13.87
2018-05-26T21:48:39.616Z,12.10
2018-05-26T21:51:09.134Z,12.63
2018-05-26T21:53:36.658Z,12.17
2018-05-26T21:56:09.668Z,12.73
2018-05-26T21:58:41.128Z,12.90
2018-05-26T22:01:11.633Z,13.33
2018-05-26T22:03:39.444Z,12.00
2018-05-26T22:06:09.063Z,14.53
2018-05-26T22:08:36.794Z,11.93
2018-05-26T22:11:15.272Z,12.07
2018-05-26T22:13:52.921Z,11.33
2018-05-26T22:16:20.914Z,15.53
2018-05-26T22:18:50.574Z,13.33
2018-05-26T22:21:19.264Z,11.80
2018-05-26T22:23:50.121Z,12.57
2018-05-26T22:26:17.869Z,12.93
2018-05-26T22:28:45.396Z,12.67
2018-05-26T22:31:13.282Z,13.57
2018-05-26T22:33:41.916Z,11.97
2018-05-26T22:36:14.890Z,13.37
2018-05-26T22:38:44.401Z,11.77
2018-05-26T22:41:13.067Z,11.43
2018-05-26T22:43:42.680Z,14.23
2018-05-26T22:46:10.430Z,16.83
2018-05-26T22:48:40.049Z,13.30
2018-05-26T22:51:12.121Z,13.57
2018-05-26T22:53:39.881Z,14.33
2018-05-26T22:56:10.736Z,14.97
2018-05-26T22:58:41.243Z,16.57
2018-05-26T23:01:13.932Z,12.63
2018-05-26T23:03:45.742Z,12.30
2018-05-26T23:06:14.880Z,14.40
2018-05-26T23:08:43.599Z,12.43
2018-05-26T23:11:13.606Z,13.03
2018-05-26T23:13:42.430Z,15.23
2018-05-26T23:16:13.420Z,14.87
2018-05-26T23:18:42.142Z,21.53
2018-05-26T23:21:15.472Z,16.17
2018-05-26T23:23:47.175Z,14.17
2018-05-26T23:26:16.894Z,14.37
2018-05-26T23:28:51.026Z,15.07
2018-05-26T23:31:24.303Z,17.03
2018-05-26T23:33:58.426Z,13.33
2018-05-26T23:36:25.995Z,13.77
2018-05-26T23:38:53.730Z,12.43
2018-05-26T23:41:21.258Z,14.33
2018-05-26T23:43:52.329Z,13.67
2018-05-26T23:46:24.137Z,12.90
2018-05-26T23:48:51.850Z,16.87
2018-05-26T23:51:24.555Z,14.97
2018-05-26T23:53:53.218Z,12.80
2018-05-26T23:56:21.918Z,16.83
2018-05-26T23:58:50.612Z,14.47
